sensor_id;sensor_type;location;lat;lon;timestamp;P1;durP1;ratioP1;P2;durP2;ratioP2
71888;SDS011;59762;49.998;14.858;2024-02-28T00:00:57;20.35;;;8.68;;
71888;SDS011;59762;49.998;14.858;2024-02-28T00:03:41;15.43;;;8.93;;
71888;SDS011;59762;49.998;14.858;2024-02-28T00:06:07;14.82;;;7.32;;
71888;SDS011;59762;49.998;14.858;2024-02-28T00:08:32;24.20;;;9.27;;
71888;SDS011;59762;49.998;14.858;2024-02-28T00:10:58;21.65;;;9.02;;
71888;SDS011;59762;49.998;14.858;2024-02-28T00:13:23;18.90;;;8.68;;
71888;SDS011;59762;49.998;14.858;2024-02-28T00:15:49;20.08;;;8.88;;
71888;SDS011;59762;49.998;14.858;2024-02-28T00:18:15;25.85;;;9.60;;
71888;SDS011;59762;49.998;14.858;2024-02-28T00:20:41;18.17;;;8.55;;
71888;SDS011;59762;49.998;14.858;2024-02-28T00:23:07;23.58;;;8.75;;
71888;SDS011;59762;49.998;14.858;2024-02-28T00:25:32;17.38;;;8.52;;
71888;SDS011;59762;49.998;14.858;2024-02-28T00:27:58;16.90;;;7.60;;
71888;SDS011;59762;49.998;14.858;2024-02-28T00:30:23;18.20;;;8.10;;
71888;SDS011;59762;49.998;14.858;2024-02-28T00:32:49;19.95;;;8.55;;
71888;SDS011;59762;49.998;14.858;2024-02-28T00:35:14;19.00;;;8.18;;
71888;SDS011;59762;49.998;14.858;2024-02-28T00:37:39;16.70;;;8.40;;
71888;SDS011;59762;49.998;14.858;2024-02-28T00:40:05;17.42;;;9.10;;
71888;SDS011;59762;49.998;14.858;2024-02-28T00:42:31;13.95;;;8.27;;
71888;SDS011;59762;49.998;14.858;2024-02-28T00:44:56;18.02;;;8.18;;
71888;SDS011;59762;49.998;14.858;2024-02-28T00:47:22;21.88;;;8.13;;
71888;SDS011;59762;49.998;14.858;2024-02-28T00:49:48;14.73;;;7.20;;
71888;SDS011;59762;49.998;14.858;2024-02-28T00:52:14;17.05;;;7.45;;
71888;SDS011;59762;49.998;14.858;2024-02-28T00:54:39;17.73;;;8.65;;
71888;SDS011;59762;49.998;14.858;2024-02-28T00:57:05;12.43;;;7.25;;
71888;SDS011;59762;49.998;14.858;2024-02-28T00:59:30;17.35;;;7.75;;
71888;SDS011;59762;49.998;14.858;2024-02-28T01:01:56;15.90;;;7.47;;
71888;SDS011;59762;49.998;14.858;2024-02-28T01:04:21;18.27;;;8.57;;
71888;SDS011;59762;49.998;14.858;2024-02-28T01:06:47;12.52;;;7.32;;
71888;SDS011;59762;49.998;14.858;2024-02-28T01:09:12;15.63;;;7.55;;
71888;SDS011;59762;49.998;14.858;2024-02-28T01:11:38;15.10;;;8.23;;
71888;SDS011;59762;49.998;14.858;2024-02-28T01:14:04;16.38;;;8.93;;
71888;SDS011;59762;49.998;14.858;2024-02-28T01:16:29;16.63;;;9.13;;
71888;SDS011;59762;49.998;14.858;2024-02-28T01:18:55;16.63;;;8.07;;
71888;SDS011;59762;49.998;14.858;2024-02-28T01:21:20;19.08;;;8.23;;
71888;SDS011;59762;49.998;14.858;2024-02-28T01:23:46;23.90;;;9.90;;
71888;SDS011;59762;49.998;14.858;2024-02-28T01:26:12;13.80;;;7.93;;
71888;SDS011;59762;49.998;14.858;2024-02-28T01:28:37;17.88;;;8.00;;
71888;SDS011;59762;49.998;14.858;2024-02-28T01:31:03;15.63;;;8.27;;
71888;SDS011;59762;49.998;14.858;2024-02-28T01:33:28;13.85;;;8.52;;
71888;SDS011;59762;49.998;14.858;2024-02-28T01:35:54;19.55;;;7.78;;
71888;SDS011;59762;49.998;14.858;2024-02-28T01:38:20;17.73;;;7.68;;
71888;SDS011;59762;49.998;14.858;2024-02-28T01:40:46;25.92;;;11.15;;
71888;SDS011;59762;49.998;14.858;2024-02-28T01:43:11;18.92;;;8.45;;
71888;SDS011;59762;49.998;14.858;2024-02-28T01:45:37;16.88;;;7.22;;
71888;SDS011;59762;49.998;14.858;2024-02-28T01:48:03;13.93;;;7.22;;
71888;SDS011;59762;49.998;14.858;2024-02-28T01:50:31;22.67;;;8.63;;
71888;SDS011;59762;49.998;14.858;2024-02-28T01:52:57;15.27;;;6.75;;
71888;SDS011;59762;49.998;14.858;2024-02-28T01:55:22;18.98;;;8.35;;
71888;SDS011;59762;49.998;14.858;2024-02-28T01:57:48;35.33;;;12.55;;
71888;SDS011;59762;49.998;14.858;2024-02-28T02:00:13;16.30;;;6.97;;
71888;SDS011;59762;49.998;14.858;2024-02-28T02:02:40;17.83;;;7.97;;
71888;SDS011;59762;49.998;14.858;2024-02-28T02:05:06;17.48;;;8.07;;
71888;SDS011;59762;49.998;14.858;2024-02-28T02:07:32;20.38;;;9.02;;
71888;SDS011;59762;49.998;14.858;2024-02-28T02:09:58;17.58;;;8.18;;
71888;SDS011;59762;49.998;14.858;2024-02-28T02:12:23;15.73;;;7.88;;
71888;SDS011;59762;49.998;14.858;2024-02-28T02:14:49;20.48;;;8.35;;
71888;SDS011;59762;49.998;14.858;2024-02-28T02:17:14;15.90;;;8.77;;
71888;SDS011;59762;49.998;14.858;2024-02-28T02:19:40;24.55;;;8.52;;
71888;SDS011;59762;49.998;14.858;2024-02-28T02:22:05;17.70;;;8.02;;
71888;SDS011;59762;49.998;14.858;2024-02-28T02:24:33;19.25;;;10.80;;
71888;SDS011;59762;49.998;14.858;2024-02-28T02:26:58;25.48;;;9.55;;
71888;SDS011;59762;49.998;14.858;2024-02-28T02:29:24;28.50;;;11.25;;
71888;SDS011;59762;49.998;14.858;2024-02-28T02:31:49;14.48;;;8.13;;
71888;SDS011;59762;49.998;14.858;2024-02-28T02:34:15;17.85;;;7.70;;
71888;SDS011;59762;49.998;14.858;2024-02-28T02:36:40;17.73;;;7.80;;
71888;SDS011;59762;49.998;14.858;2024-02-28T02:39:06;19.15;;;7.97;;
71888;SDS011;59762;49.998;14.858;2024-02-28T02:41:33;13.00;;;7.18;;
71888;SDS011;59762;49.998;14.858;2024-02-28T02:43:59;17.13;;;8.55;;
71888;SDS011;59762;49.998;14.858;2024-02-28T02:46:24;13.70;;;7.72;;
71888;SDS011;59762;49.998;14.858;2024-02-28T02:48:50;15.43;;;7.32;;
71888;SDS011;59762;49.998;14.858;2024-02-28T02:51:15;19.98;;;8.15;;
71888;SDS011;59762;49.998;14.858;2024-02-28T02:53:43;13.18;;;6.28;;
71888;SDS011;59762;49.998;14.858;2024-02-28T02:56:08;10.93;;;6.78;;
71888;SDS011;59762;49.998;14.858;2024-02-28T02:58:34;16.35;;;8.23;;
71888;SDS011;59762;49.998;14.858;2024-02-28T03:00:59;16.77;;;8.35;;
71888;SDS011;59762;49.998;14.858;2024-02-28T03:03:25;13.00;;;7.63;;
71888;SDS011;59762;49.998;14.858;2024-02-28T03:05:50;15.90;;;6.32;;
71888;SDS011;59762;49.998;14.858;2024-02-28T03:08:16;16.85;;;8.43;;
71888;SDS011;59762;49.998;14.858;2024-02-28T03:10:41;16.52;;;7.05;;
71888;SDS011;59762;49.998;14.858;2024-02-28T03:13:07;17.42;;;8.27;;
71888;SDS011;59762;49.998;14.858;2024-02-28T03:15:33;15.32;;;8.38;;
71888;SDS011;59762;49.998;14.858;2024-02-28T03:17:58;13.32;;;7.80;;
71888;SDS011;59762;49.998;14.858;2024-02-28T03:20:24;25.88;;;10.88;;
71888;SDS011;59762;49.998;14.858;2024-02-28T03:22:49;23.83;;;9.60;;
71888;SDS011;59762;49.998;14.858;2024-02-28T03:25:15;22.67;;;10.38;;
71888;SDS011;59762;49.998;14.858;2024-02-28T03:27:40;15.45;;;8.65;;
71888;SDS011;59762;49.998;14.858;2024-02-28T03:30:06;15.70;;;7.32;;
71888;SDS011;59762;49.998;14.858;2024-02-28T03:32:31;16.75;;;8.07;;
71888;SDS011;59762;49.998;14.858;2024-02-28T03:34:57;19.38;;;9.05;;
71888;SDS011;59762;49.998;14.858;2024-02-28T03:37:23;19.23;;;8.73;;
71888;SDS011;59762;49.998;14.858;2024-02-28T03:39:48;16.35;;;7.40;;
71888;SDS011;59762;49.998;14.858;2024-02-28T03:42:14;17.65;;;7.95;;
71888;SDS011;59762;49.998;14.858;2024-02-28T03:44:39;21.23;;;8.55;;
71888;SDS011;59762;49.998;14.858;2024-02-28T03:47:05;13.52;;;7.18;;
71888;SDS011;59762;49.998;14.858;2024-02-28T03:49:30;13.88;;;8.40;;
71888;SDS011;59762;49.998;14.858;2024-02-28T03:51:56;18.80;;;7.90;;
71888;SDS011;59762;49.998;14.858;2024-02-28T03:54:21;11.10;;;5.55;;
71888;SDS011;59762;49.998;14.858;2024-02-28T03:56:47;26.50;;;8.95;;
71888;SDS011;59762;49.998;14.858;2024-02-28T03:59:12;16.48;;;8.43;;
71888;SDS011;59762;49.998;14.858;2024-02-28T04:01:38;17.77;;;7.25;;
71888;SDS011;59762;49.998;14.858;2024-02-28T04:04:03;13.00;;;6.00;;
71888;SDS011;59762;49.998;14.858;2024-02-28T04:06:29;17.10;;;8.52;;
71888;SDS011;59762;49.998;14.858;2024-02-28T04:08:54;14.15;;;7.32;;
71888;SDS011;59762;49.998;14.858;2024-02-28T04:11:20;23.20;;;8.93;;
71888;SDS011;59762;49.998;14.858;2024-02-28T04:13:46;18.83;;;7.88;;
71888;SDS011;59762;49.998;14.858;2024-02-28T04:16:11;11.90;;;6.05;;
71888;SDS011;59762;49.998;14.858;2024-02-28T04:18:37;12.07;;;5.55;;
71888;SDS011;59762;49.998;14.858;2024-02-28T04:21:03;13.85;;;7.05;;
71888;SDS011;59762;49.998;14.858;2024-02-28T04:23:28;17.45;;;7.70;;
71888;SDS011;59762;49.998;14.858;2024-02-28T04:25:54;13.02;;;5.72;;
71888;SDS011;59762;49.998;14.858;2024-02-28T04:28:19;12.15;;;6.65;;
71888;SDS011;59762;49.998;14.858;2024-02-28T04:30:45;13.32;;;6.45;;
71888;SDS011;59762;49.998;14.858;2024-02-28T04:33:10;12.48;;;7.20;;
71888;SDS011;59762;49.998;14.858;2024-02-28T04:35:36;13.50;;;5.22;;
71888;SDS011;59762;49.998;14.858;2024-02-28T04:38:01;17.38;;;8.70;;
71888;SDS011;59762;49.998;14.858;2024-02-28T04:40:27;18.45;;;7.68;;
71888;SDS011;59762;49.998;14.858;2024-02-28T04:42:52;12.73;;;6.00;;
71888;SDS011;59762;49.998;14.858;2024-02-28T04:45:18;10.13;;;6.18;;
71888;SDS011;59762;49.998;14.858;2024-02-28T04:47:43;12.82;;;6.93;;
71888;SDS011;59762;49.998;14.858;2024-02-28T04:50:09;11.15;;;5.80;;
71888;SDS011;59762;49.998;14.858;2024-02-28T04:52:34;12.27;;;7.05;;
71888;SDS011;59762;49.998;14.858;2024-02-28T04:55:00;10.70;;;5.97;;
71888;SDS011;59762;49.998;14.858;2024-02-28T04:57:26;10.77;;;5.75;;
71888;SDS011;59762;49.998;14.858;2024-02-28T04:59:51;12.93;;;6.03;;
71888;SDS011;59762;49.998;14.858;2024-02-28T05:02:17;18.45;;;7.45;;
71888;SDS011;59762;49.998;14.858;2024-02-28T05:04:43;16.50;;;6.40;;
71888;SDS011;59762;49.998;14.858;2024-02-28T05:07:08;18.40;;;6.88;;
71888;SDS011;59762;49.998;14.858;2024-02-28T05:09:34;12.90;;;5.97;;
71888;SDS011;59762;49.998;14.858;2024-02-28T05:12:00;14.52;;;7.32;;
71888;SDS011;59762;49.998;14.858;2024-02-28T05:14:26;13.15;;;6.07;;
71888;SDS011;59762;49.998;14.858;2024-02-28T05:16:51;14.73;;;6.50;;
71888;SDS011;59762;49.998;14.858;2024-02-28T05:19:17;11.35;;;7.20;;
71888;SDS011;59762;49.998;14.858;2024-02-28T05:21:45;16.60;;;6.75;;
71888;SDS011;59762;49.998;14.858;2024-02-28T05:24:11;12.63;;;6.55;;
71888;SDS011;59762;49.998;14.858;2024-02-28T05:26:37;18.65;;;7.00;;
71888;SDS011;59762;49.998;14.858;2024-02-28T05:29:03;19.35;;;6.85;;
71888;SDS011;59762;49.998;14.858;2024-02-28T05:31:29;15.35;;;6.10;;
71888;SDS011;59762;49.998;14.858;2024-02-28T05:33:57;11.25;;;6.20;;
71888;SDS011;59762;49.998;14.858;2024-02-28T05:36:22;16.63;;;6.72;;
71888;SDS011;59762;49.998;14.858;2024-02-28T05:38:50;14.55;;;8.57;;
71888;SDS011;59762;49.998;14.858;2024-02-28T05:41:18;12.68;;;6.95;;
71888;SDS011;59762;49.998;14.858;2024-02-28T05:43:44;11.68;;;6.38;;
71888;SDS011;59762;49.998;14.858;2024-02-28T05:46:11;12.48;;;6.53;;
71888;SDS011;59762;49.998;14.858;2024-02-28T05:48:37;19.73;;;7.10;;
71888;SDS011;59762;49.998;14.858;2024-02-28T05:51:02;12.02;;;6.20;;
71888;SDS011;59762;49.998;14.858;2024-02-28T05:53:28;14.50;;;7.18;;
71888;SDS011;59762;49.998;14.858;2024-02-28T05:55:57;12.13;;;6.28;;
71888;SDS011;59762;49.998;14.858;2024-02-28T05:58:23;14.38;;;7.78;;
71888;SDS011;59762;49.998;14.858;2024-02-28T06:00:50;18.10;;;6.50;;
71888;SDS011;59762;49.998;14.858;2024-02-28T06:03:16;11.13;;;6.57;;
71888;SDS011;59762;49.998;14.858;2024-02-28T06:05:41;18.17;;;6.40;;
71888;SDS011;59762;49.998;14.858;2024-02-28T06:08:07;20.73;;;6.78;;
71888;SDS011;59762;49.998;14.858;2024-02-28T06:10:32;18.98;;;7.55;;
71888;SDS011;59762;49.998;14.858;2024-02-28T06:12:58;18.77;;;8.50;;
71888;SDS011;59762;49.998;14.858;2024-02-28T06:15:24;17.23;;;8.85;;
71888;SDS011;59762;49.998;14.858;2024-02-28T06:17:49;12.82;;;7.15;;
71888;SDS011;59762;49.998;14.858;2024-02-28T06:20:15;11.40;;;7.28;;
71888;SDS011;59762;49.998;14.858;2024-02-28T06:22:40;14.85;;;8.32;;
71888;SDS011;59762;49.998;14.858;2024-02-28T06:25:06;14.77;;;7.43;;
71888;SDS011;59762;49.998;14.858;2024-02-28T06:27:39;10.70;;;5.97;;
71888;SDS011;59762;49.998;14.858;2024-02-28T06:30:04;17.45;;;7.70;;
71888;SDS011;59762;49.998;14.858;2024-02-28T06:32:30;13.10;;;6.85;;
71888;SDS011;59762;49.998;14.858;2024-02-28T06:34:56;11.95;;;6.70;;
71888;SDS011;59762;49.998;14.858;2024-02-28T06:37:21;16.88;;;6.93;;
71888;SDS011;59762;49.998;14.858;2024-02-28T06:39:47;11.13;;;5.15;;
71888;SDS011;59762;49.998;14.858;2024-02-28T06:42:12;15.23;;;7.18;;
71888;SDS011;59762;49.998;14.858;2024-02-28T06:44:38;16.40;;;6.85;;
71888;SDS011;59762;49.998;14.858;2024-02-28T06:47:03;13.85;;;6.57;;
71888;SDS011;59762;49.998;14.858;2024-02-28T06:49:29;16.20;;;7.88;;
71888;SDS011;59762;49.998;14.858;2024-02-28T06:51:54;13.30;;;5.13;;
71888;SDS011;59762;49.998;14.858;2024-02-28T06:54:23;16.17;;;7.65;;
71888;SDS011;59762;49.998;14.858;2024-02-28T06:56:49;14.00;;;6.50;;
71888;SDS011;59762;49.998;14.858;2024-02-28T06:59:14;9.27;;;5.95;;
71888;SDS011;59762;49.998;14.858;2024-02-28T07:01:40;11.07;;;5.97;;
71888;SDS011;59762;49.998;14.858;2024-02-28T07:04:05;17.75;;;7.28;;
71888;SDS011;59762;49.998;14.858;2024-02-28T07:06:31;11.15;;;6.22;;
71888;SDS011;59762;49.998;14.858;2024-02-28T07:08:56;16.50;;;7.25;;
71888;SDS011;59762;49.998;14.858;2024-02-28T07:11:22;15.63;;;7.10;;
71888;SDS011;59762;49.998;14.858;2024-02-28T07:13:47;10.80;;;5.32;;
71888;SDS011;59762;49.998;14.858;2024-02-28T07:16:13;14.10;;;7.82;;
71888;SDS011;59762;49.998;14.858;2024-02-28T07:18:38;10.13;;;5.47;;
71888;SDS011;59762;49.998;14.858;2024-02-28T07:21:04;12.75;;;6.32;;
71888;SDS011;59762;49.998;14.858;2024-02-28T07:23:32;14.25;;;8.15;;
71888;SDS011;59762;49.998;14.858;2024-02-28T07:25:57;12.00;;;5.05;;
71888;SDS011;59762;49.998;14.858;2024-02-28T07:28:23;13.52;;;7.07;;
71888;SDS011;59762;49.998;14.858;2024-02-28T07:30:48;12.95;;;7.13;;
71888;SDS011;59762;49.998;14.858;2024-02-28T07:33:14;18.65;;;8.45;;
71888;SDS011;59762;49.998;14.858;2024-02-28T07:35:46;19.98;;;9.07;;
71888;SDS011;59762;49.998;14.858;2024-02-28T07:38:12;10.50;;;5.32;;
71888;SDS011;59762;49.998;14.858;2024-02-28T07:40:37;15.25;;;5.63;;
71888;SDS011;59762;49.998;14.858;2024-02-28T07:43:03;13.30;;;5.07;;
71888;SDS011;59762;49.998;14.858;2024-02-28T07:45:28;14.30;;;7.38;;
71888;SDS011;59762;49.998;14.858;2024-02-28T07:47:54;11.25;;;6.68;;
71888;SDS011;59762;49.998;14.858;2024-02-28T07:50:19;14.70;;;7.15;;
71888;SDS011;59762;49.998;14.858;2024-02-28T07:52:45;13.00;;;6.03;;
71888;SDS011;59762;49.998;14.858;2024-02-28T07:55:10;9.68;;;4.57;;
71888;SDS011;59762;49.998;14.858;2024-02-28T07:57:36;11.55;;;6.60;;
71888;SDS011;59762;49.998;14.858;2024-02-28T08:00:02;9.48;;;6.15;;
71888;SDS011;59762;49.998;14.858;2024-02-28T08:02:28;17.90;;;5.40;;
71888;SDS011;59762;49.998;14.858;2024-02-28T08:04:53;7.60;;;4.95;;
71888;SDS011;59762;49.998;14.858;2024-02-28T08:07:19;6.97;;;4.22;;
71888;SDS011;59762;49.998;14.858;2024-02-28T08:09:44;10.57;;;5.47;;
71888;SDS011;59762;49.998;14.858;2024-02-28T08:12:10;8.23;;;5.15;;
71888;SDS011;59762;49.998;14.858;2024-02-28T08:14:35;15.55;;;6.15;;
71888;SDS011;59762;49.998;14.858;2024-02-28T08:17:01;7.45;;;4.38;;
71888;SDS011;59762;49.998;14.858;2024-02-28T08:19:26;10.05;;;5.82;;
71888;SDS011;59762;49.998;14.858;2024-02-28T08:21:52;11.35;;;4.82;;
71888;SDS011;59762;49.998;14.858;2024-02-28T08:24:17;8.68;;;4.72;;
71888;SDS011;59762;49.998;14.858;2024-02-28T08:26:43;11.82;;;6.45;;
71888;SDS011;59762;49.998;14.858;2024-02-28T08:29:09;12.23;;;5.32;;
71888;SDS011;59762;49.998;14.858;2024-02-28T08:31:39;8.20;;;4.07;;
71888;SDS011;59762;49.998;14.858;2024-02-28T08:34:05;11.43;;;6.00;;
71888;SDS011;59762;49.998;14.858;2024-02-28T08:36:30;12.60;;;5.68;;
71888;SDS011;59762;49.998;14.858;2024-02-28T08:38:56;13.70;;;5.95;;
71888;SDS011;59762;49.998;14.858;2024-02-28T08:41:21;14.07;;;6.40;;
71888;SDS011;59762;49.998;14.858;2024-02-28T08:43:46;15.32;;;6.60;;
71888;SDS011;59762;49.998;14.858;2024-02-28T08:46:15;11.65;;;7.72;;
71888;SDS011;59762;49.998;14.858;2024-02-28T08:48:43;11.82;;;6.38;;
71888;SDS011;59762;49.998;14.858;2024-02-28T08:51:09;12.85;;;7.15;;
71888;SDS011;59762;49.998;14.858;2024-02-28T08:53:35;9.82;;;6.30;;
71888;SDS011;59762;49.998;14.858;2024-02-28T08:56:00;13.40;;;4.90;;
71888;SDS011;59762;49.998;14.858;2024-02-28T08:58:25;12.02;;;5.40;;
71888;SDS011;59762;49.998;14.858;2024-02-28T09:00:51;10.77;;;5.60;;
71888;SDS011;59762;49.998;14.858;2024-02-28T09:03:17;10.88;;;6.47;;
71888;SDS011;59762;49.998;14.858;2024-02-28T09:05:42;12.23;;;5.32;;
71888;SDS011;59762;49.998;14.858;2024-02-28T09:08:08;12.07;;;5.30;;
71888;SDS011;59762;49.998;14.858;2024-02-28T09:10:34;9.75;;;4.47;;
71888;SDS011;59762;49.998;14.858;2024-02-28T09:12:59;9.15;;;5.10;;
71888;SDS011;59762;49.998;14.858;2024-02-28T09:15:25;10.45;;;5.20;;
71888;SDS011;59762;49.998;14.858;2024-02-28T09:17:50;11.32;;;6.00;;
71888;SDS011;59762;49.998;14.858;2024-02-28T09:20:16;10.20;;;4.35;;
71888;SDS011;59762;49.998;14.858;2024-02-28T09:22:42;8.90;;;5.93;;
71888;SDS011;59762;49.998;14.858;2024-02-28T09:25:07;9.25;;;4.40;;
71888;SDS011;59762;49.998;14.858;2024-02-28T09:27:34;10.65;;;5.20;;
71888;SDS011;59762;49.998;14.858;2024-02-28T09:30:00;9.95;;;5.43;;
71888;SDS011;59762;49.998;14.858;2024-02-28T09:32:26;11.52;;;5.90;;
71888;SDS011;59762;49.998;14.858;2024-02-28T09:34:52;13.48;;;6.22;;
71888;SDS011;59762;49.998;14.858;2024-02-28T09:37:18;9.60;;;5.32;;
71888;SDS011;59762;49.998;14.858;2024-02-28T09:39:45;10.30;;;5.45;;
71888;SDS011;59762;49.998;14.858;2024-02-28T09:42:11;12.07;;;5.07;;
71888;SDS011;59762;49.998;14.858;2024-02-28T09:44:36;9.35;;;5.55;;
71888;SDS011;59762;49.998;14.858;2024-02-28T09:47:02;13.20;;;6.93;;
71888;SDS011;59762;49.998;14.858;2024-02-28T09:49:28;13.60;;;5.72;;
71888;SDS011;59762;49.998;14.858;2024-02-28T09:51:56;12.70;;;5.45;;
71888;SDS011;59762;49.998;14.858;2024-02-28T09:54:23;9.60;;;4.57;;
71888;SDS011;59762;49.998;14.858;2024-02-28T09:56:50;10.00;;;4.72;;
71888;SDS011;59762;49.998;14.858;2024-02-28T09:59:20;12.23;;;6.13;;
71888;SDS011;59762;49.998;14.858;2024-02-28T10:01:47;10.77;;;5.55;;
71888;SDS011;59762;49.998;14.858;2024-02-28T10:04:15;8.65;;;5.00;;
71888;SDS011;59762;49.998;14.858;2024-02-28T10:06:42;12.35;;;5.28;;
71888;SDS011;59762;49.998;14.858;2024-02-28T10:09:07;8.63;;;4.53;;
71888;SDS011;59762;49.998;14.858;2024-02-28T10:11:33;10.73;;;5.82;;
71888;SDS011;59762;49.998;14.858;2024-02-28T10:14:00;11.60;;;6.05;;
71888;SDS011;59762;49.998;14.858;2024-02-28T10:16:27;11.13;;;5.93;;
71888;SDS011;59762;49.998;14.858;2024-02-28T10:18:52;8.25;;;4.47;;
71888;SDS011;59762;49.998;14.858;2024-02-28T10:21:18;10.35;;;6.13;;
71888;SDS011;59762;49.998;14.858;2024-02-28T10:23:43;9.63;;;5.53;;
71888;SDS011;59762;49.998;14.858;2024-02-28T10:26:10;9.55;;;4.90;;
71888;SDS011;59762;49.998;14.858;2024-02-28T10:28:39;15.18;;;5.63;;
71888;SDS011;59762;49.998;14.858;2024-02-28T10:31:05;10.90;;;5.03;;
71888;SDS011;59762;49.998;14.858;2024-02-28T10:33:31;5.65;;;3.90;;
71888;SDS011;59762;49.998;14.858;2024-02-28T10:35:59;11.88;;;4.72;;
71888;SDS011;59762;49.998;14.858;2024-02-28T10:38:25;15.93;;;5.82;;
71888;SDS011;59762;49.998;14.858;2024-02-28T10:40:51;10.60;;;5.78;;
71888;SDS011;59762;49.998;14.858;2024-02-28T10:43:17;12.43;;;5.32;;
71888;SDS011;59762;49.998;14.858;2024-02-28T10:45:44;10.98;;;5.22;;
71888;SDS011;59762;49.998;14.858;2024-02-28T10:48:11;11.35;;;5.78;;
71888;SDS011;59762;49.998;14.858;2024-02-28T10:50:39;13.70;;;6.50;;
71888;SDS011;59762;49.998;14.858;2024-02-28T10:53:04;10.55;;;5.82;;
71888;SDS011;59762;49.998;14.858;2024-02-28T10:55:38;9.68;;;5.50;;
71888;SDS011;59762;49.998;14.858;2024-02-28T10:58:08;12.77;;;5.90;;
71888;SDS011;59762;49.998;14.858;2024-02-28T11:00:38;12.55;;;6.32;;
71888;SDS011;59762;49.998;14.858;2024-02-28T11:03:04;9.10;;;5.63;;
71888;SDS011;59762;49.998;14.858;2024-02-28T11:05:39;13.45;;;5.70;;
71888;SDS011;59762;49.998;14.858;2024-02-28T11:08:09;9.98;;;5.80;;
71888;SDS011;59762;49.998;14.858;2024-02-28T11:10:35;8.57;;;5.15;;
71888;SDS011;59762;49.998;14.858;2024-02-28T11:13:00;7.13;;;5.28;;
71888;SDS011;59762;49.998;14.858;2024-02-28T11:15:26;9.07;;;5.32;;
71888;SDS011;59762;49.998;14.858;2024-02-28T11:17:53;9.38;;;5.32;;
71888;SDS011;59762;49.998;14.858;2024-02-28T11:20:18;10.88;;;5.82;;
71888;SDS011;59762;49.998;14.858;2024-02-28T11:22:45;8.93;;;5.03;;
71888;SDS011;59762;49.998;14.858;2024-02-28T11:25:10;12.65;;;5.10;;
71888;SDS011;59762;49.998;14.858;2024-02-28T11:27:48;8.80;;;5.22;;
71888;SDS011;59762;49.998;14.858;2024-02-28T11:30:14;10.48;;;5.65;;
71888;SDS011;59762;49.998;14.858;2024-02-28T11:32:40;9.02;;;5.53;;
71888;SDS011;59762;49.998;14.858;2024-02-28T11:35:06;11.85;;;6.60;;
71888;SDS011;59762;49.998;14.858;2024-02-28T11:37:31;8.38;;;5.07;;
71888;SDS011;59762;49.998;14.858;2024-02-28T11:39:58;9.75;;;6.55;;
71888;SDS011;59762;49.998;14.858;2024-02-28T11:42:23;8.73;;;4.78;;
71888;SDS011;59762;49.998;14.858;2024-02-28T11:44:52;14.38;;;6.10;;
71888;SDS011;59762;49.998;14.858;2024-02-28T11:47:19;7.18;;;5.03;;
71888;SDS011;59762;49.998;14.858;2024-02-28T11:49:44;9.25;;;4.90;;
71888;SDS011;59762;49.998;14.858;2024-02-28T11:52:10;8.73;;;4.95;;
71888;SDS011;59762;49.998;14.858;2024-02-28T11:54:36;10.70;;;6.20;;
71888;SDS011;59762;49.998;14.858;2024-02-28T11:57:01;13.32;;;5.90;;
71888;SDS011;59762;49.998;14.858;2024-02-28T11:59:27;12.23;;;5.82;;
71888;SDS011;59762;49.998;14.858;2024-02-28T12:01:52;13.02;;;6.20;;
71888;SDS011;59762;49.998;14.858;2024-02-28T12:04:18;8.35;;;5.38;;
71888;SDS011;59762;49.998;14.858;2024-02-28T12:06:43;11.00;;;5.25;;
71888;SDS011;59762;49.998;14.858;2024-02-28T12:09:10;12.35;;;6.30;;
71888;SDS011;59762;49.998;14.858;2024-02-28T12:11:37;11.15;;;5.85;;
71888;SDS011;59762;49.998;14.858;2024-02-28T12:14:03;10.52;;;5.35;;
71888;SDS011;59762;49.998;14.858;2024-02-28T12:16:29;13.07;;;6.80;;
71888;SDS011;59762;49.998;14.858;2024-02-28T12:18:55;8.10;;;5.45;;
71888;SDS011;59762;49.998;14.858;2024-02-28T12:21:21;12.93;;;7.00;;
71888;SDS011;59762;49.998;14.858;2024-02-28T12:23:46;10.13;;;5.85;;
71888;SDS011;59762;49.998;14.858;2024-02-28T12:26:13;10.82;;;5.75;;
71888;SDS011;59762;49.998;14.858;2024-02-28T12:28:39;8.90;;;5.88;;
71888;SDS011;59762;49.998;14.858;2024-02-28T12:31:05;14.57;;;6.38;;
71888;SDS011;59762;49.998;14.858;2024-02-28T12:33:34;10.63;;;5.55;;
71888;SDS011;59762;49.998;14.858;2024-02-28T12:35:59;14.18;;;5.57;;
71888;SDS011;59762;49.998;14.858;2024-02-28T12:38:28;6.90;;;4.55;;
71888;SDS011;59762;49.998;14.858;2024-02-28T12:40:54;10.05;;;5.68;;
71888;SDS011;59762;49.998;14.858;2024-02-28T12:43:19;9.05;;;4.63;;
71888;SDS011;59762;49.998;14.858;2024-02-28T12:45:45;6.47;;;4.95;;
71888;SDS011;59762;49.998;14.858;2024-02-28T12:48:10;14.38;;;5.53;;
71888;SDS011;59762;49.998;14.858;2024-02-28T12:50:36;5.38;;;3.90;;
71888;SDS011;59762;49.998;14.858;2024-02-28T12:53:01;9.15;;;4.53;;
71888;SDS011;59762;49.998;14.858;2024-02-28T12:55:27;6.30;;;4.65;;
71888;SDS011;59762;49.998;14.858;2024-02-28T12:57:52;10.68;;;4.53;;
71888;SDS011;59762;49.998;14.858;2024-02-28T13:00:18;8.10;;;4.57;;
71888;SDS011;59762;49.998;14.858;2024-02-28T13:02:44;9.23;;;4.55;;
71888;SDS011;59762;49.998;14.858;2024-02-28T13:05:10;8.68;;;4.05;;
71888;SDS011;59762;49.998;14.858;2024-02-28T13:07:36;7.55;;;3.63;;
71888;SDS011;59762;49.998;14.858;2024-02-28T13:10:01;6.63;;;4.28;;
71888;SDS011;59762;49.998;14.858;2024-02-28T13:12:30;8.23;;;4.10;;
71888;SDS011;59762;49.998;14.858;2024-02-28T13:14:55;6.07;;;3.58;;
71888;SDS011;59762;49.998;14.858;2024-02-28T13:17:21;9.75;;;4.53;;
71888;SDS011;59762;49.998;14.858;2024-02-28T13:19:47;6.82;;;4.25;;
71888;SDS011;59762;49.998;14.858;2024-02-28T13:22:12;7.90;;;4.55;;
71888;SDS011;59762;49.998;14.858;2024-02-28T13:24:38;7.90;;;4.90;;
71888;SDS011;59762;49.998;14.858;2024-02-28T13:27:03;9.77;;;4.00;;
71888;SDS011;59762;49.998;14.858;2024-02-28T13:29:29;5.60;;;4.22;;
71888;SDS011;59762;49.998;14.858;2024-02-28T13:31:56;8.93;;;4.20;;
71888;SDS011;59762;49.998;14.858;2024-02-28T13:34:21;6.70;;;3.97;;
71888;SDS011;59762;49.998;14.858;2024-02-28T13:36:47;6.90;;;4.03;;
71888;SDS011;59762;49.998;14.858;2024-02-28T13:39:13;6.15;;;4.63;;
71888;SDS011;59762;49.998;14.858;2024-02-28T13:41:41;6.50;;;3.60;;
71888;SDS011;59762;49.998;14.858;2024-02-28T13:44:07;5.95;;;3.53;;
71888;SDS011;59762;49.998;14.858;2024-02-28T13:46:34;8.02;;;3.90;;
71888;SDS011;59762;49.998;14.858;2024-02-28T13:49:00;10.85;;;4.43;;
71888;SDS011;59762;49.998;14.858;2024-02-28T13:51:26;8.35;;;3.75;;
71888;SDS011;59762;49.998;14.858;2024-02-28T13:53:51;6.40;;;3.10;;
71888;SDS011;59762;49.998;14.858;2024-02-28T13:56:19;4.85;;;3.15;;
71888;SDS011;59762;49.998;14.858;2024-02-28T13:58:44;6.55;;;4.35;;
71888;SDS011;59762;49.998;14.858;2024-02-28T14:01:10;7.35;;;4.82;;
71888;SDS011;59762;49.998;14.858;2024-02-28T14:03:35;8.15;;;4.50;;
71888;SDS011;59762;49.998;14.858;2024-02-28T14:06:02;8.15;;;4.55;;
71888;SDS011;59762;49.998;14.858;2024-02-28T14:08:28;5.68;;;3.75;;
71888;SDS011;59762;49.998;14.858;2024-02-28T14:10:53;4.05;;;2.80;;
71888;SDS011;59762;49.998;14.858;2024-02-28T14:13:19;5.70;;;3.15;;
71888;SDS011;59762;49.998;14.858;2024-02-28T14:15:44;6.00;;;3.40;;